sensor_id;sensor_type;location;lat;lon;timestamp;P1;durP1;ratioP1;P2;durP2;ratioP2
177;SDS011;77;48.792;9.032;2023-03-16T00:02:19;18.53;;;11.20;;
177;SDS011;77;48.792;9.032;2023-03-16T00:04:44;23.37;;;12.50;;
177;SDS011;77;48.792;9.032;2023-03-16T00:07:10;22.10;;;12.40;;
177;SDS011;77;48.792;9.032;2023-03-16T00:09:37;22.77;;;13.47;;
177;SDS011;77;48.792;9.032;2023-03-16T00:12:02;26.63;;;13.87;;
177;SDS011;77;48.792;9.032;2023-03-16T00:14:28;24.10;;;14.00;;
177;SDS011;77;48.792;9.032;2023-03-16T00:16:53;24.80;;;14.60;;
177;SDS011;77;48.792;9.032;2023-03-16T00:19:18;28.53;;;15.23;;
177;SDS011;77;48.792;9.032;2023-03-16T00:21:43;29.50;;;14.83;;
177;SDS011;77;48.792;9.032;2023-03-16T00:24:08;22.83;;;14.00;;
177;SDS011;77;48.792;9.032;2023-03-16T00:26:35;27.73;;;14.80;;
177;SDS011;77;48.792;9.032;2023-03-16T00:29:00;25.50;;;14.00;;
177;SDS011;77;48.792;9.032;2023-03-16T00:31:25;24.67;;;14.73;;
177;SDS011;77;48.792;9.032;2023-03-16T00:33:50;23.50;;;14.00;;
177;SDS011;77;48.792;9.032;2023-03-16T00:36:16;26.53;;;15.10;;
177;SDS011;77;48.792;9.032;2023-03-16T00:38:41;26.87;;;14.43;;
177;SDS011;77;48.792;9.032;2023-03-16T00:41:06;25.27;;;14.37;;
177;SDS011;77;48.792;9.032;2023-03-16T00:43:34;25.57;;;14.47;;
177;SDS011;77;48.792;9.032;2023-03-16T00:46:00;24.70;;;14.50;;
177;SDS011;77;48.792;9.032;2023-03-16T00:48:25;23.00;;;13.63;;
177;SDS011;77;48.792;9.032;2023-03-16T00:50:50;23.77;;;13.40;;
177;SDS011;77;48.792;9.032;2023-03-16T00:53:15;22.40;;;13.90;;
177;SDS011;77;48.792;9.032;2023-03-16T00:55:40;23.90;;;14.27;;
177;SDS011;77;48.792;9.032;2023-03-16T00:58:05;24.23;;;12.83;;
177;SDS011;77;48.792;9.032;2023-03-16T01:00:32;23.20;;;13.80;;
177;SDS011;77;48.792;9.032;2023-03-16T01:02:57;21.60;;;12.07;;
177;SDS011;77;48.792;9.032;2023-03-16T01:05:22;20.30;;;11.90;;
177;SDS011;77;48.792;9.032;2023-03-16T01:07:47;19.10;;;11.37;;
177;SDS011;77;48.792;9.032;2023-03-16T01:10:13;20.40;;;11.87;;
177;SDS011;77;48.792;9.032;2023-03-16T01:12:38;21.03;;;12.03;;
177;SDS011;77;48.792;9.032;2023-03-16T01:15:03;19.67;;;11.23;;
177;SDS011;77;48.792;9.032;2023-03-16T01:17:30;20.17;;;11.10;;
177;SDS011;77;48.792;9.032;2023-03-16T01:19:55;17.97;;;10.43;;
177;SDS011;77;48.792;9.032;2023-03-16T01:22:20;17.57;;;9.30;;
177;SDS011;77;48.792;9.032;2023-03-16T01:24:45;15.87;;;9.47;;
177;SDS011;77;48.792;9.032;2023-03-16T01:27:11;13.00;;;8.00;;
177;SDS011;77;48.792;9.032;2023-03-16T01:29:36;17.60;;;8.83;;
177;SDS011;77;48.792;9.032;2023-03-16T01:32:02;18.37;;;10.20;;
177;SDS011;77;48.792;9.032;2023-03-16T01:34:29;18.03;;;10.23;;
177;SDS011;77;48.792;9.032;2023-03-16T01:36:54;17.00;;;10.17;;
177;SDS011;77;48.792;9.032;2023-03-16T01:39:20;16.20;;;10.20;;
177;SDS011;77;48.792;9.032;2023-03-16T01:41:45;19.80;;;11.60;;
177;SDS011;77;48.792;9.032;2023-03-16T01:44:11;17.77;;;10.03;;
177;SDS011;77;48.792;9.032;2023-03-16T01:46:37;18.83;;;10.13;;
177;SDS011;77;48.792;9.032;2023-03-16T01:49:06;18.83;;;10.10;;
177;SDS011;77;48.792;9.032;2023-03-16T01:51:34;16.27;;;8.77;;
177;SDS011;77;48.792;9.032;2023-03-16T01:54:01;17.48;;;10.43;;
177;SDS011;77;48.792;9.032;2023-03-16T01:56:28;14.83;;;9.30;;
177;SDS011;77;48.792;9.032;2023-03-16T01:58:55;14.90;;;8.27;;
177;SDS011;77;48.792;9.032;2023-03-16T02:01:21;15.70;;;8.93;;
177;SDS011;77;48.792;9.032;2023-03-16T02:03:46;15.57;;;8.27;;
177;SDS011;77;48.792;9.032;2023-03-16T02:06:14;18.43;;;9.20;;
177;SDS011;77;48.792;9.032;2023-03-16T02:08:41;15.93;;;9.17;;
177;SDS011;77;48.792;9.032;2023-03-16T02:11:07;17.63;;;9.83;;
177;SDS011;77;48.792;9.032;2023-03-16T02:13:33;18.33;;;9.87;;
177;SDS011;77;48.792;9.032;2023-03-16T02:15:58;16.73;;;9.53;;
177;SDS011;77;48.792;9.032;2023-03-16T02:18:23;17.73;;;9.77;;
177;SDS011;77;48.792;9.032;2023-03-16T02:20:49;16.07;;;10.20;;
177;SDS011;77;48.792;9.032;2023-03-16T02:23:16;20.33;;;10.57;;
177;SDS011;77;48.792;9.032;2023-03-16T02:25:45;20.03;;;11.67;;
177;SDS011;77;48.792;9.032;2023-03-16T02:28:14;23.07;;;12.13;;
177;SDS011;77;48.792;9.032;2023-03-16T02:30:44;19.03;;;11.50;;
177;SDS011;77;48.792;9.032;2023-03-16T02:33:10;20.97;;;11.80;;
177;SDS011;77;48.792;9.032;2023-03-16T02:35:35;21.17;;;12.43;;
177;SDS011;77;48.792;9.032;2023-03-16T02:38:00;22.30;;;12.57;;
177;SDS011;77;48.792;9.032;2023-03-16T02:40:27;22.93;;;13.10;;
177;SDS011;77;48.792;9.032;2023-03-16T02:42:53;20.70;;;12.90;;
177;SDS011;77;48.792;9.032;2023-03-16T02:45:20;21.00;;;12.83;;
177;SDS011;77;48.792;9.032;2023-03-16T02:47:46;21.90;;;12.50;;
177;SDS011;77;48.792;9.032;2023-03-16T02:50:13;23.27;;;13.23;;
177;SDS011;77;48.792;9.032;2023-03-16T02:52:38;21.47;;;12.50;;
177;SDS011;77;48.792;9.032;2023-03-16T02:55:04;21.00;;;13.30;;
177;SDS011;77;48.792;9.032;2023-03-16T02:57:29;22.17;;;13.30;;
177;SDS011;77;48.792;9.032;2023-03-16T02:59:55;21.83;;;13.20;;
177;SDS011;77;48.792;9.032;2023-03-16T03:02:20;22.10;;;12.97;;
177;SDS011;77;48.792;9.032;2023-03-16T03:04:46;21.53;;;12.40;;
177;SDS011;77;48.792;9.032;2023-03-16T03:07:11;19.67;;;12.30;;
177;SDS011;77;48.792;9.032;2023-03-16T03:09:36;24.17;;;12.90;;
177;SDS011;77;48.792;9.032;2023-03-16T03:12:02;27.48;;;13.15;;
177;SDS011;77;48.792;9.032;2023-03-16T03:14:27;24.10;;;13.00;;
177;SDS011;77;48.792;9.032;2023-03-16T03:16:52;23.37;;;12.67;;
177;SDS011;77;48.792;9.032;2023-03-16T03:19:17;22.00;;;12.90;;
177;SDS011;77;48.792;9.032;2023-03-16T03:21:44;25.40;;;12.50;;
177;SDS011;77;48.792;9.032;2023-03-16T03:24:09;21.27;;;12.40;;
177;SDS011;77;48.792;9.032;2023-03-16T03:26:34;20.40;;;11.90;;
177;SDS011;77;48.792;9.032;2023-03-16T03:28:59;20.10;;;12.17;;
177;SDS011;77;48.792;9.032;2023-03-16T03:31:25;22.63;;;12.63;;
177;SDS011;77;48.792;9.032;2023-03-16T03:33:50;22.50;;;12.40;;
177;SDS011;77;48.792;9.032;2023-03-16T03:36:15;22.73;;;13.30;;
177;SDS011;77;48.792;9.032;2023-03-16T03:38:41;23.83;;;11.90;;
177;SDS011;77;48.792;9.032;2023-03-16T03:41:07;19.47;;;11.93;;
177;SDS011;77;48.792;9.032;2023-03-16T03:43:32;21.37;;;11.57;;
177;SDS011;77;48.792;9.032;2023-03-16T03:45:57;20.40;;;11.90;;
177;SDS011;77;48.792;9.032;2023-03-16T03:48:23;20.60;;;11.83;;
177;SDS011;77;48.792;9.032;2023-03-16T03:50:48;20.97;;;12.67;;
177;SDS011;77;48.792;9.032;2023-03-16T03:53:13;21.70;;;12.40;;
177;SDS011;77;48.792;9.032;2023-03-16T03:55:40;20.30;;;12.00;;
177;SDS011;77;48.792;9.032;2023-03-16T03:58:05;21.87;;;12.70;;
177;SDS011;77;48.792;9.032;2023-03-16T04:00:30;20.27;;;11.95;;
177;SDS011;77;48.792;9.032;2023-03-16T04:02:55;22.40;;;12.90;;
177;SDS011;77;48.792;9.032;2023-03-16T04:05:20;20.67;;;11.33;;
177;SDS011;77;48.792;9.032;2023-03-16T04:07:46;20.67;;;12.33;;
177;SDS011;77;48.792;9.032;2023-03-16T04:10:11;20.20;;;12.30;;
177;SDS011;77;48.792;9.032;2023-03-16T04:12:37;22.10;;;12.00;;
177;SDS011;77;48.792;9.032;2023-03-16T04:15:03;20.70;;;12.83;;
177;SDS011;77;48.792;9.032;2023-03-16T04:17:28;21.27;;;12.37;;
177;SDS011;77;48.792;9.032;2023-03-16T04:19:53;21.17;;;11.70;;
177;SDS011;77;48.792;9.032;2023-03-16T04:22:18;22.65;;;12.55;;
177;SDS011;77;48.792;9.032;2023-03-16T04:24:44;21.63;;;12.27;;
177;SDS011;77;48.792;9.032;2023-03-16T04:27:09;20.57;;;12.00;;
177;SDS011;77;48.792;9.032;2023-03-16T04:29:36;26.03;;;15.27;;
177;SDS011;77;48.792;9.032;2023-03-16T04:32:01;23.50;;;13.30;;
177;SDS011;77;48.792;9.032;2023-03-16T04:34:26;23.57;;;13.37;;
177;SDS011;77;48.792;9.032;2023-03-16T04:36:51;22.00;;;12.53;;
177;SDS011;77;48.792;9.032;2023-03-16T04:39:16;25.00;;;14.27;;
177;SDS011;77;48.792;9.032;2023-03-16T04:41:41;24.10;;;13.83;;
177;SDS011;77;48.792;9.032;2023-03-16T04:44:07;25.43;;;13.47;;
177;SDS011;77;48.792;9.032;2023-03-16T04:46:33;25.30;;;13.60;;
177;SDS011;77;48.792;9.032;2023-03-16T04:48:58;26.00;;;14.93;;
177;SDS011;77;48.792;9.032;2023-03-16T04:51:23;26.50;;;14.68;;
177;SDS011;77;48.792;9.032;2023-03-16T04:53:49;26.07;;;14.30;;
177;SDS011;77;48.792;9.032;2023-03-16T04:56:14;28.67;;;15.93;;
177;SDS011;77;48.792;9.032;2023-03-16T04:58:39;26.70;;;15.30;;
177;SDS011;77;48.792;9.032;2023-03-16T05:01:04;28.13;;;15.20;;
177;SDS011;77;48.792;9.032;2023-03-16T05:03:31;26.63;;;15.73;;
177;SDS011;77;48.792;9.032;2023-03-16T05:05:56;26.20;;;15.10;;
177;SDS011;77;48.792;9.032;2023-03-16T05:08:21;26.60;;;14.25;;
177;SDS011;77;48.792;9.032;2023-03-16T05:10:46;26.83;;;15.53;;
177;SDS011;77;48.792;9.032;2023-03-16T05:13:11;25.25;;;14.75;;
177;SDS011;77;48.792;9.032;2023-03-16T05:15:36;29.30;;;16.20;;
177;SDS011;77;48.792;9.032;2023-03-16T05:18:02;26.50;;;15.40;;
177;SDS011;77;48.792;9.032;2023-03-16T05:20:28;27.70;;;15.17;;
177;SDS011;77;48.792;9.032;2023-03-16T05:22:53;29.60;;;15.93;;
177;SDS011;77;48.792;9.032;2023-03-16T05:25:19;29.80;;;15.97;;
177;SDS011;77;48.792;9.032;2023-03-16T05:27:45;24.60;;;14.70;;
177;SDS011;77;48.792;9.032;2023-03-16T05:30:11;27.00;;;15.80;;
177;SDS011;77;48.792;9.032;2023-03-16T05:32:36;27.50;;;15.90;;
177;SDS011;77;48.792;9.032;2023-03-16T05:35:03;26.17;;;14.60;;
177;SDS011;77;48.792;9.032;2023-03-16T05:37:30;29.13;;;15.90;;
177;SDS011;77;48.792;9.032;2023-03-16T05:39:55;29.73;;;16.20;;
177;SDS011;77;48.792;9.032;2023-03-16T05:42:20;28.10;;;15.43;;
177;SDS011;77;48.792;9.032;2023-03-16T05:44:45;32.30;;;15.97;;
177;SDS011;77;48.792;9.032;2023-03-16T05:47:11;29.50;;;15.60;;
177;SDS011;77;48.792;9.032;2023-03-16T05:49:36;26.97;;;15.33;;
177;SDS011;77;48.792;9.032;2023-03-16T05:52:01;27.40;;;15.37;;
177;SDS011;77;48.792;9.032;2023-03-16T05:54:28;29.60;;;16.20;;
177;SDS011;77;48.792;9.032;2023-03-16T05:56:53;26.97;;;14.53;;
177;SDS011;77;48.792;9.032;2023-03-16T05:59:18;28.33;;;15.10;;
177;SDS011;77;48.792;9.032;2023-03-16T06:01:43;29.40;;;15.83;;
177;SDS011;77;48.792;9.032;2023-03-16T06:04:08;25.57;;;14.67;;
177;SDS011;77;48.792;9.032;2023-03-16T06:06:33;26.37;;;14.97;;
177;SDS011;77;48.792;9.032;2023-03-16T06:08:59;26.73;;;15.10;;
177;SDS011;77;48.792;9.032;2023-03-16T06:11:25;24.77;;;14.10;;
177;SDS011;77;48.792;9.032;2023-03-16T06:13:50;26.30;;;14.67;;
177;SDS011;77;48.792;9.032;2023-03-16T06:16:15;26.83;;;14.70;;
177;SDS011;77;48.792;9.032;2023-03-16T06:18:41;25.87;;;14.13;;
177;SDS011;77;48.792;9.032;2023-03-16T06:21:06;26.53;;;14.23;;
177;SDS011;77;48.792;9.032;2023-03-16T06:23:31;24.40;;;13.00;;
177;SDS011;77;48.792;9.032;2023-03-16T06:25:56;26.50;;;14.50;;
177;SDS011;77;48.792;9.032;2023-03-16T06:28:23;22.70;;;13.00;;
177;SDS011;77;48.792;9.032;2023-03-16T06:30:48;24.57;;;12.97;;
177;SDS011;77;48.792;9.032;2023-03-16T06:33:16;25.47;;;14.00;;
177;SDS011;77;48.792;9.032;2023-03-16T06:35:41;24.93;;;13.60;;
177;SDS011;77;48.792;9.032;2023-03-16T06:38:07;25.77;;;14.30;;
177;SDS011;77;48.792;9.032;2023-03-16T06:40:32;26.53;;;14.27;;
177;SDS011;77;48.792;9.032;2023-03-16T06:42:57;26.17;;;14.40;;
177;SDS011;77;48.792;9.032;2023-03-16T06:45:24;27.40;;;14.80;;
177;SDS011;77;48.792;9.032;2023-03-16T06:47:49;26.90;;;14.03;;
177;SDS011;77;48.792;9.032;2023-03-16T06:50:14;25.00;;;13.60;;
177;SDS011;77;48.792;9.032;2023-03-16T06:52:39;24.90;;;12.87;;
177;SDS011;77;48.792;9.032;2023-03-16T06:55:05;25.03;;;13.60;;
177;SDS011;77;48.792;9.032;2023-03-16T06:57:30;26.83;;;14.40;;
177;SDS011;77;48.792;9.032;2023-03-16T06:59:55;25.03;;;13.40;;
177;SDS011;77;48.792;9.032;2023-03-16T07:02:22;27.50;;;14.30;;
177;SDS011;77;48.792;9.032;2023-03-16T07:04:47;24.37;;;14.20;;
177;SDS011;77;48.792;9.032;2023-03-16T07:07:12;27.93;;;14.73;;
177;SDS011;77;48.792;9.032;2023-03-16T07:09:38;27.93;;;15.03;;
177;SDS011;77;48.792;9.032;2023-03-16T07:12:03;25.70;;;14.37;;
177;SDS011;77;48.792;9.032;2023-03-16T07:14:28;25.17;;;14.37;;
177;SDS011;77;48.792;9.032;2023-03-16T07:16:53;24.50;;;13.27;;
177;SDS011;77;48.792;9.032;2023-03-16T07:19:20;24.70;;;12.80;;
177;SDS011;77;48.792;9.032;2023-03-16T07:21:45;22.93;;;13.00;;
177;SDS011;77;48.792;9.032;2023-03-16T07:24:10;21.45;;;12.30;;
177;SDS011;77;48.792;9.032;2023-03-16T07:26:35;23.93;;;12.70;;
177;SDS011;77;48.792;9.032;2023-03-16T07:29:01;24.60;;;13.80;;
177;SDS011;77;48.792;9.032;2023-03-16T07:31:26;21.63;;;12.57;;
177;SDS011;77;48.792;9.032;2023-03-16T07:33:51;19.23;;;10.80;;
177;SDS011;77;48.792;9.032;2023-03-16T07:36:17;20.00;;;12.10;;
177;SDS011;77;48.792;9.032;2023-03-16T07:38:43;19.57;;;11.33;;
177;SDS011;77;48.792;9.032;2023-03-16T07:41:08;21.10;;;11.60;;
177;SDS011;77;48.792;9.032;2023-03-16T07:43:33;20.73;;;11.77;;
177;SDS011;77;48.792;9.032;2023-03-16T07:45:58;18.60;;;10.97;;
177;SDS011;77;48.792;9.032;2023-03-16T07:48:24;20.13;;;11.57;;
177;SDS011;77;48.792;9.032;2023-03-16T07:50:49;17.57;;;10.90;;
177;SDS011;77;48.792;9.032;2023-03-16T07:53:16;18.93;;;11.10;;
177;SDS011;77;48.792;9.032;2023-03-16T07:55:41;19.57;;;10.30;;
177;SDS011;77;48.792;9.032;2023-03-16T07:58:06;18.40;;;10.93;;
177;SDS011;77;48.792;9.032;2023-03-16T08:00:32;18.23;;;10.53;;
177;SDS011;77;48.792;9.032;2023-03-16T08:02:57;22.27;;;12.40;;
177;SDS011;77;48.792;9.032;2023-03-16T08:05:22;19.40;;;11.87;;
177;SDS011;77;48.792;9.032;2023-03-16T08:07:47;18.27;;;11.00;;
177;SDS011;77;48.792;9.032;2023-03-16T08:10:14;21.73;;;11.67;;
177;SDS011;77;48.792;9.032;2023-03-16T08:12:39;20.10;;;11.10;;
177;SDS011;77;48.792;9.032;2023-03-16T08:15:05;22.20;;;10.83;;
177;SDS011;77;48.792;9.032;2023-03-16T08:17:30;20.47;;;11.27;;
177;SDS011;77;48.792;9.032;2023-03-16T08:19:55;20.97;;;10.43;;
177;SDS011;77;48.792;9.032;2023-03-16T08:22:20;19.00;;;10.97;;
177;SDS011;77;48.792;9.032;2023-03-16T08:24:46;20.57;;;10.90;;
177;SDS011;77;48.792;9.032;2023-03-16T08:27:12;15.90;;;10.27;;
177;SDS011;77;48.792;9.032;2023-03-16T08:29:37;17.87;;;10.50;;
177;SDS011;77;48.792;9.032;2023-03-16T08:32:03;19.03;;;10.50;;
177;SDS011;77;48.792;9.032;2023-03-16T08:34:28;15.97;;;10.10;;
177;SDS011;77;48.792;9.032;2023-03-16T08:36:53;18.63;;;11.17;;
177;SDS011;77;48.792;9.032;2023-03-16T08:39:18;16.63;;;9.30;;
177;SDS011;77;48.792;9.032;2023-03-16T08:41:44;13.93;;;8.90;;
177;SDS011;77;48.792;9.032;2023-03-16T08:44:10;14.77;;;8.80;;
177;SDS011;77;48.792;9.032;2023-03-16T08:46:35;13.93;;;7.70;;
177;SDS011;77;48.792;9.032;2023-03-16T08:49:01;12.77;;;8.20;;
177;SDS011;77;48.792;9.032;2023-03-16T08:51:26;14.00;;;8.90;;
177;SDS011;77;48.792;9.032;2023-03-16T08:53:51;13.57;;;7.77;;
177;SDS011;77;48.792;9.032;2023-03-16T08:56:16;14.27;;;7.83;;
177;SDS011;77;48.792;9.032;2023-03-16T08:58:42;16.73;;;7.97;;
177;SDS011;77;48.792;9.032;2023-03-16T09:01:08;11.87;;;7.57;;
177;SDS011;77;48.792;9.032;2023-03-16T09:03:33;14.83;;;7.10;;
177;SDS011;77;48.792;9.032;2023-03-16T09:05:59;13.70;;;7.90;;
177;SDS011;77;48.792;9.032;2023-03-16T09:08:25;10.57;;;6.40;;
177;SDS011;77;48.792;9.032;2023-03-16T09:10:56;14.20;;;7.30;;
177;SDS011;77;48.792;9.032;2023-03-16T09:13:22;11.00;;;7.10;;
177;SDS011;77;48.792;9.032;2023-03-16T09:15:47;10.97;;;6.83;;
177;SDS011;77;48.792;9.032;2023-03-16T09:18:15;12.93;;;6.70;;
177;SDS011;77;48.792;9.032;2023-03-16T09:20:40;12.10;;;6.87;;
177;SDS011;77;48.792;9.032;2023-03-16T09:23:06;10.63;;;6.67;;
177;SDS011;77;48.792;9.032;2023-03-16T09:25:31;9.13;;;6.20;;
177;SDS011;77;48.792;9.032;2023-03-16T09:27:56;11.33;;;6.90;;
177;SDS011;77;48.792;9.032;2023-03-16T09:30:21;10.17;;;6.17;;
177;SDS011;77;48.792;9.032;2023-03-16T09:32:46;9.23;;;6.23;;
177;SDS011;77;48.792;9.032;2023-03-16T09:35:13;8.73;;;5.87;;
177;SDS011;77;48.792;9.032;2023-03-16T09:37:38;9.77;;;6.33;;
177;SDS011;77;48.792;9.032;2023-03-16T09:40:04;8.97;;;5.90;;
177;SDS011;77;48.792;9.032;2023-03-16T09:42:32;10.77;;;6.33;;
177;SDS011;77;48.792;9.032;2023-03-16T09:45:02;8.40;;;5.60;;
177;SDS011;77;48.792;9.032;2023-03-16T09:47:31;16.83;;;6.30;;
177;SDS011;77;48.792;9.032;2023-03-16T09:49:59;11.10;;;6.10;;
177;SDS011;77;48.792;9.032;2023-03-16T09:52:27;10.47;;;5.90;;
177;SDS011;77;48.792;9.032;2023-03-16T09:54:54;8.60;;;5.80;;
177;SDS011;77;48.792;9.032;2023-03-16T09:57:23;9.50;;;6.37;;
177;SDS011;77;48.792;9.032;2023-03-16T09:59:50;7.90;;;5.47;;
177;SDS011;77;48.792;9.032;2023-03-16T10:02:34;7.63;;;5.17;;
177;SDS011;77;48.792;9.032;2023-03-16T10:05:04;9.13;;;5.70;;
177;SDS011;77;48.792;9.032;2023-03-16T10:07:35;11.57;;;6.60;;
177;SDS011;77;48.792;9.032;2023-03-16T10:10:04;8.40;;;6.00;;
177;SDS011;77;48.792;9.032;2023-03-16T10:12:31;8.33;;;6.13;;
177;SDS011;77;48.792;9.032;2023-03-16T10:14:58;8.97;;;5.67;;
177;SDS011;77;48.792;9.032;2023-03-16T10:17:27;12.20;;;6.00;;
177;SDS011;77;48.792;9.032;2023-03-16T10:19:55;8.77;;;5.80;;
177;SDS011;77;48.792;9.032;2023-03-16T10:22:21;12.50;;;5.77;;
177;SDS011;77;48.792;9.032;2023-03-16T10:24:54;8.47;;;5.80;;
177;SDS011;77;48.792;9.032;2023-03-16T10:27:21;8.83;;;5.47;;
177;SDS011;77;48.792;9.032;2023-03-16T10:29:48;8.43;;;5.73;;
177;SDS011;77;48.792;9.032;2023-03-16T10:32:15;7.20;;;5.33;;
177;SDS011;77;48.792;9.032;2023-03-16T10:34:41;8.13;;;5.73;;
177;SDS011;77;48.792;9.032;2023-03-16T10:37:08;12.20;;;5.60;;
177;SDS011;77;48.792;9.032;2023-03-16T10:39:35;7.10;;;5.50;;
177;SDS011;77;48.792;9.032;2023-03-16T10:42:01;7.50;;;4.50;;
177;SDS011;77;48.792;9.032;2023-03-16T10:44:27;9.07;;;5.10;;
177;SDS011;77;48.792;9.032;2023-03-16T10:46:57;8.30;;;4.33;;
177;SDS011;77;48.792;9.032;2023-03-16T10:49:24;8.10;;;4.97;;
177;SDS011;77;48.792;9.032;2023-03-16T10:51:49;8.90;;;4.73;;
177;SDS011;77;48.792;9.032;2023-03-16T10:54:15;7.10;;;4.63;;
177;SDS011;77;48.792;9.032;2023-03-16T10:56:41;7.40;;;4.90;;
177;SDS011;77;48.792;9.032;2023-03-16T10:59:14;8.50;;;5.57;;
177;SDS011;77;48.792;9.032;2023-03-16T11:01:43;7.70;;;5.50;;
177;SDS011;77;48.792;9.032;2023-03-16T11:04:14;7.20;;;4.87;;
177;SDS011;77;48.792;9.032;2023-03-16T11:06:50;7.90;;;5.03;;
177;SDS011;77;48.792;9.032;2023-03-16T11:09:19;6.87;;;5.00;;
177;SDS011;77;48.792;9.032;2023-03-16T11:11:48;6.77;;;4.70;;
177;SDS011;77;48.792;9.032;2023-03-16T11:14:17;9.87;;;5.20;;
177;SDS011;77;48.792;9.032;2023-03-16T11:16:45;8.40;;;5.40;;
177;SDS011;77;48.792;9.032;2023-03-16T11:19:32;7.03;;;5.17;;
177;SDS011;77;48.792;9.032;2023-03-16T11:21:59;9.23;;;4.97;;
177;SDS011;77;48.792;9.032;2023-03-16T11:24:28;8.23;;;4.80;;
177;SDS011;77;48.792;9.032;2023-03-16T11:26:55;6.70;;;4.80;;
177;SDS011;77;48.792;9.032;2023-03-16T11:29:25;9.73;;;4.97;;
177;SDS011;77;48.792;9.032;2023-03-16T11:31:52;5.90;;;4.30;;
177;SDS011;77;48.792;9.032;2023-03-16T11:34:20;6.47;;;4.70;;
177;SDS011;77;48.792;9.032;2023-03-16T11:36:49;5.60;;;4.43;;
177;SDS011;77;48.792;9.032;2023-03-16T11:39:19;10.17;;;4.57;;
177;SDS011;77;48.792;9.032;2023-03-16T11:41:49;8.53;;;4.67;;
177;SDS011;77;48.792;9.032;2023-03-16T11:44:17;7.80;;;4.93;;
177;SDS011;77;48.792;9.032;2023-03-16T11:49:43;7.63;;;5.03;;
177;SDS011;77;48.792;9.032;2023-03-16T11:52:13;5.37;;;3.90;;
177;SDS011;77;48.792;9.032;2023-03-16T11:54:43;5.63;;;4.20;;
177;SDS011;77;48.792;9.032;2023-03-16T11:57:14;6.20;;;4.50;;
177;SDS011;77;48.792;9.032;2023-03-16T12:00:04;9.67;;;4.23;;
177;SDS011;77;48.792;9.032;2023-03-16T12:02:34;6.13;;;3.93;;
177;SDS011;77;48.792;9.032;2023-03-16T12:05:21;6.47;;;4.30;;
177;SDS011;77;48.792;9.032;2023-03-16T12:07:49;6.37;;;4.67;;
177;SDS011;77;48.792;9.032;2023-03-16T12:10:23;5.67;;;3.90;;
177;SDS011;77;48.792;9.032;2023-03-16T12:12:54;5.77;;;4.43;;
177;SDS011;77;48.792;9.032;2023-03-16T12:15:25;7.80;;;4.80;;
177;SDS011;77;48.792;9.032;2023-03-16T12:17:53;6.20;;;4.40;;
177;SDS011;77;48.792;9.032;2023-03-16T12:20:22;6.93;;;4.43;;
177;SDS011;77;48.792;9.032;2023-03-16T12:22:49;5.77;;;4.47;;
177;SDS011;77;48.792;9.032;2023-03-16T12:25:16;6.80;;;4.40;;
177;SDS011;77;48.792;9.032;2023-03-16T12:27:42;5.97;;;4.57;;
177;SDS011;77;48.792;9.032;2023-03-16T12:30:16;7.57;;;4.40;;
177;SDS011;77;48.792;9.032;2023-03-16T12:32:45;8.00;;;4.93;;
177;SDS011;77;48.792;9.032;2023-03-16T12:35:17;6.77;;;4.13;;
177;SDS011;77;48.792;9.032;2023-03-16T12:37:48;5.77;;;4.20;;
177;SDS011;77;48.792;9.032;2023-03-16T12:40:21;7.13;;;3.80;;
177;SDS011;77;48.792;9.032;2023-03-16T12:42:52;6.13;;;4.30;;
177;SDS011;77;48.792;9.032;2023-03-16T12:45:22;4.00;;;3.10;;
177;SDS011;77;48.792;9.032;2023-03-16T12:47:53;4.83;;;3.63;;
177;SDS011;77;48.792;9.032;2023-03-16T12:50:22;7.83;;;3.90;;
177;SDS011;77;48.792;9.032;2023-03-16T12:52:49;6.70;;;3.87;;
177;SDS011;77;48.792;9.032;2023-03-16T12:55:16;6.60;;;4.10;;
177;SDS011;77;48.792;9.032;2023-03-16T12:57:42;6.20;;;3.90;;
177;SDS011;77;48.792;9.032;2023-03-16T13:00:08;6.03;;;3.90;;
177;SDS011;77;48.792;9.032;2023-03-16T13:02:34;5.83;;;3.77;;
177;SDS011;77;48.792;9.032;2023-03-16T13:05:01;5.40;;;4.10;;
177;SDS011;77;48.792;9.032;2023-03-16T13:07:27;5.10;;;3.80;;
177;SDS011;77;48.792;9.032;2023-03-16T13:09:55;5.57;;;3.63;;
177;SDS011;77;48.792;9.032;2023-03-16T13:12:22;5.97;;;3.87;;
177;SDS011;77;48.792;9.032;2023-03-16T13:14:47;5.60;;;3.67;;
177;SDS011;77;48.792;9.032;2023-03-16T13:17:22;5.00;;;3.27;;
177;SDS011;77;48.792;9.032;2023-03-16T13:19:57;4.90;;;3.40;;
177;SDS011;77;48.792;9.032;2023-03-16T13:22:24;6.27;;;3.53;;
177;SDS011;77;48.792;9.032;2023-03-16T13:24:50;4.90;;;3.73;;
177;SDS011;77;48.792;9.032;2023-03-16T13:27:20;5.80;;;3.70;;
177;SDS011;77;48.792;9.032;2023-03-16T13:29:51;4.80;;;3.20;;
177;SDS011;77;48.792;9.032;2023-03-16T13:32:16;8.47;;;3.70;;
177;SDS011;77;48.792;9.032;2023-03-16T13:34:45;4.80;;;3.70;;
177;SDS011;77;48.792;9.032;2023-03-16T13:37:11;4.80;;;3.53;;
177;SDS011;77;48.792;9.032;2023-03-16T13:39:39;4.43;;;3.13;;
177;SDS011;77;48.792;9.032;2023-03-16T13:42:11;5.10;;;3.60;;
177;SDS011;77;48.792;9.032;2023-03-16T13:44:45;12.60;;;3.30;;
177;SDS011;77;48.792;9.032;2023-03-16T13:47:11;4.00;;;3.13;;
177;SDS011;77;48.792;9.032;2023-03-16T13:50:13;4.80;;;3.20;;
177;SDS011;77;48.792;9.032;2023-03-16T13:52:30;5.33;;;3.00;;
177;SDS011;77;48.792;9.032;2023-03-16T13:55:05;4.60;;;2.77;;
177;SDS011;77;48.792;9.032;2023-03-16T13:57:34;3.93;;;2.90;;
177;SDS011;77;48.792;9.032;2023-03-16T14:00:12;7.37;;;2.73;;
177;SDS011;77;48.792;9.032;2023-03-16T14:02:39;3.77;;;2.87;;
177;SDS011;77;48.792;9.032;2023-03-16T14:05:09;4.40;;;3.00;;
177;SDS011;77;48.792;9.032;2023-03-16T14:07:35;4.63;;;3.00;;
177;SDS011;77;48.792;9.032;2023-03-16T14:10:01;4.30;;;2.80;;
177;SDS011;77;48.792;9.032;2023-03-16T14:12:26;6.23;;;3.33;;
177;SDS011;77;48.792;9.032;2023-03-16T14:14:53;7.83;;;3.40;;
177;SDS011;77;48.792;9.032;2023-03-16T14:17:20;3.70;;;2.70;;
177;SDS011;77;48.792;9.032;2023-03-16T14:19:48;3.93;;;2.70;;
177;SDS011;77;48.792;9.032;2023-03-16T14:22:15;6.57;;;3.03;;
177;SDS011;77;48.792;9.032;2023-03-16T14:24:40;6.03;;;3.27;;
177;SDS011;77;48.792;9.032;2023-03-16T14:27:15;5.00;;;2.60;;
177;SDS011;77;48.792;9.032;2023-03-16T14:29:41;4.27;;;3.03;;
177;SDS011;77;48.792;9.032;2023-03-16T14:32:17;4.20;;;2.73;;
177;SDS011;77;48.792;9.032;2023-03-16T14:34:47;4.27;;;3.20;;
177;SDS011;77;48.792;9.032;2023-03-16T14:37:13;5.60;;;3.17;;
177;SDS011;77;48.792;9.032;2023-03-16T14:39:38;7.07;;;3.20;;
177;SDS011;77;48.792;9.032;2023-03-16T14:42:04;5.70;;;3.00;;
177;SDS011;77;48.792;9.032;2023-03-16T14:44:30;5.17;;;2.80;;
177;SDS011;77;48.792;9.032;2023-03-16T14:47:01;5.83;;;3.37;;
177;SDS011;77;48.792;9.032;2023-03-16T14:49:30;5.10;;;2.90;;
177;SDS011;77;48.792;9.032;2023-03-16T14:51:58;4.77;;;3.00;;
177;SDS011;77;48.792;9.032;2023-03-16T14:54:31;4.67;;;3.13;;
177;SDS011;77;48.792;9.032;2023-03-16T14:56:58;4.90;;;3.10;;
177;SDS011;77;48.792;9.032;2023-03-16T14:59:23;5.00;;;2.93;;
177;SDS011;77;48.792;9.032;2023-03-16T15:01:49;5.53;;;3.00;;
177;SDS011;77;48.792;9.032;2023-03-16T15:04:16;3.87;;;2.60;;
177;SDS011;77;48.792;9.032;2023-03-16T15:06:41;4.33;;;2.80;;
177;SDS011;77;48.792;9.032;2023-03-16T15:09:08;4.73;;;2.90;;
177;SDS011;77;48.792;9.032;2023-03-16T15:11:40;4.10;;;2.80;;
177;SDS011;77;48.792;9.032;2023-03-16T15:14:06;4.37;;;2.93;;
177;SDS011;77;48.792;9.032;2023-03-16T15:16:40;3.57;;;2.60;;
177;SDS011;77;48.792;9.032;2023-03-16T15:19:07;4.20;;;3.00;;
177;SDS011;77;48.792;9.032;2023-03-16T15:21:37;6.83;;;3.00;;
177;SDS011;77;48.792;9.032;2023-03-16T15:24:16;4.30;;;2.90;;
177;SDS011;77;48.792;9.032;2023-03-16T15:26:50;4.63;;;2.80;;
177;SDS011;77;48.792;9.032;2023-03-16T15:29:19;4.10;;;2.77;;
177;SDS011;77;48.792;9.032;2023-03-16T15:34:34;5.40;;;3.03;;
177;SDS011;77;48.792;9.032;2023-03-16T15:36:59;5.23;;;3.00;;
177;SDS011;77;48.792;9.032;2023-03-16T15:39:29;7.90;;;2.80;;
177;SDS011;77;48.792;9.032;2023-03-16T15:41:57;3.77;;;2.70;;
177;SDS011;77;48.792;9.032;2023-03-16T15:44:23;3.83;;;2.73;;
177;SDS011;77;48.792;9.032;2023-03-16T15:46:50;5.20;;;2.97;;